Time;durP1;ratioP1;P1;durP2;ratioP2;P2;SDS_P1;SDS_P2;PMS_P1;PMS_P2;Temp;Humidity;BMP_temperature;BMP_pressure;BME280_temperature;BME280_humidity;BME280_pressure;Samples;Min_cycle;Max_cycle;Signal;HPM_P1;HPM_P2
2023/01/01 00:01:24;;;;;;;13.70;6.40;;;15.00;99.90;;;;;;5071838;28;20491;-69
2023/01/01 00:03:51;;;;;;;14.02;7.35;;;14.90;99.90;;;;;;5072066;28;20028;-68
2023/01/01 00:06:17;;;;;;;15.38;6.88;;;14.80;99.90;;;;;;5072009;28;20027;-68
2023/01/01 00:08:42;;;;;;;12.77;7.25;;;14.80;99.90;;;;;;5073127;28;20024;-68
2023/01/01 00:11:09;;;;;;;16.98;7.90;;;14.80;99.90;;;;;;5071701;28;20029;-68
2023/01/01 00:13:37;;;;;;;19.20;9.32;;;14.80;99.90;;;;;;5071808;28;20029;-68
2023/01/01 00:16:08;;;;;;;17.52;8.77;;;14.80;99.90;;;;;;5073056;28;20479;-68
2023/01/01 00:18:35;;;;;;;19.67;8.40;;;14.80;99.90;;;;;;5073058;28;20029;-68
2023/01/01 00:21:10;;;;;;;15.80;8.70;;;14.70;99.90;;;;;;5071631;28;20040;-69
2023/01/01 00:23:36;;;;;;;16.73;7.68;;;14.60;99.90;;;;;;5071794;28;20031;-69
2023/01/01 00:26:17;;;;;;;9.85;6.07;;;14.60;99.90;;;;;;5071713;28;20115;-69
2023/01/01 00:28:44;;;;;;;12.80;6.85;;;14.60;99.90;;;;;;5072192;28;20040;-69
2023/01/01 00:31:16;;;;;;;15.18;6.72;;;14.60;99.90;;;;;;5075646;28;20060;-69
2023/01/01 00:33:42;;;;;;;13.30;6.40;;;14.60;99.90;;;;;;5076636;28;20108;-70
2023/01/01 00:36:09;;;;;;;12.68;4.85;;;14.50;99.90;;;;;;5075735;28;20050;-70
2023/01/01 00:38:35;;;;;;;10.85;4.65;;;14.50;99.90;;;;;;5077166;28;20086;-70
2023/01/01 00:41:01;;;;;;;8.00;4.45;;;14.60;99.90;;;;;;5076962;28;20028;-69
2023/01/01 00:43:27;;;;;;;8.45;4.55;;;14.60;99.90;;;;;;5076871;28;20059;-69
2023/01/01 00:45:52;;;;;;;9.80;4.75;;;14.50;99.90;;;;;;5076841;28;20037;-69
2023/01/01 00:48:19;;;;;;;12.07;5.60;;;14.40;99.90;;;;;;5076362;28;20032;-69
2023/01/01 00:50:46;;;;;;;11.93;5.35;;;14.30;99.90;;;;;;5075387;28;20111;-69
2023/01/01 00:53:11;;;;;;;9.40;4.00;;;14.40;99.90;;;;;;5075536;28;20036;-69
2023/01/01 00:55:38;;;;;;;6.32;4.47;;;14.40;99.90;;;;;;5075470;28;20025;-68
2023/01/01 00:58:04;;;;;;;8.55;3.10;;;14.50;99.90;;;;;;5075556;28;20024;-68
2023/01/01 01:00:29;;;;;;;5.68;3.50;;;14.50;99.90;;;;;;5075233;28;20032;-68
2023/01/01 01:02:55;;;;;;;9.27;3.05;;;14.40;99.90;;;;;;5076530;28;20032;-68
2023/01/01 01:05:21;;;;;;;7.13;3.33;;;14.40;99.90;;;;;;5075273;28;20063;-68
2023/01/01 01:07:46;;;;;;;5.40;3.15;;;14.40;99.90;;;;;;5075557;28;20025;-68
2023/01/01 01:10:12;;;;;;;7.47;3.35;;;14.40;99.90;;;;;;5076501;28;20025;-68
2023/01/01 01:12:37;;;;;;;6.43;3.22;;;14.40;99.90;;;;;;5075111;28;20019;-68
2023/01/01 01:15:04;;;;;;;11.93;4.00;;;14.30;99.90;;;;;;5076315;28;20028;-68
2023/01/01 01:17:30;;;;;;;8.48;3.92;;;14.30;99.90;;;;;;5076238;28;20024;-68
2023/01/01 01:19:55;;;;;;;9.38;3.47;;;14.20;99.90;;;;;;5074908;28;20119;-68
2023/01/01 01:22:21;;;;;;;7.57;3.78;;;14.10;99.90;;;;;;5074894;28;20029;-68
2023/01/01 01:24:46;;;;;;;8.82;3.63;;;14.10;99.90;;;;;;5076280;28;20078;-68
2023/01/01 01:27:12;;;;;;;8.05;3.95;;;14.00;99.90;;;;;;5076324;28;20025;-68
2023/01/01 01:29:37;;;;;;;7.07;3.25;;;14.00;99.90;;;;;;5075812;28;20062;-68
2023/01/01 01:32:03;;;;;;;8.43;3.70;;;14.10;99.90;;;;;;5074739;28;20059;-68
2023/01/01 01:34:29;;;;;;;10.85;4.35;;;14.00;99.90;;;;;;5075891;28;20028;-68
2023/01/01 01:36:55;;;;;;;5.15;3.10;;;14.10;99.90;;;;;;5075549;28;20047;-68
2023/01/01 01:39:21;;;;;;;6.18;3.13;;;14.00;99.90;;;;;;5074487;28;20025;-69
2023/01/01 01:41:46;;;;;;;8.63;3.30;;;14.10;99.90;;;;;;5075745;28;20028;-68
2023/01/01 01:44:50;;;;;;;6.38;2.83;;;14.10;99.90;;;;;;5075702;28;20020;-68
2023/01/01 01:47:17;;;;;;;7.00;2.75;;;14.00;99.90;;;;;;5075650;28;20035;-68
2023/01/01 01:49:44;;;;;;;6.65;2.60;;;13.90;99.90;;;;;;5075121;28;20035;-68
2023/01/01 01:52:09;;;;;;;7.43;2.65;;;14.00;99.90;;;;;;5074937;28;20065;-68
2023/01/01 01:54:35;;;;;;;4.97;2.25;;;14.00;99.90;;;;;;5074388;28;20118;-68
2023/01/01 01:57:07;;;;;;;8.25;3.10;;;14.00;99.90;;;;;;5074202;28;20020;-68
2023/01/01 01:59:37;;;;;;;12.50;3.15;;;14.00;99.90;;;;;;5075653;28;20028;-68
2023/01/01 02:02:06;;;;;;;9.82;3.80;;;14.00;99.90;;;;;;5075513;28;20024;-68
2023/01/01 02:04:33;;;;;;;11.13;4.13;;;14.00;99.90;;;;;;5074992;28;20028;-68
2023/01/01 02:06:59;;;;;;;6.47;3.63;;;13.90;99.90;;;;;;5075710;28;20043;-69
2023/01/01 02:09:25;;;;;;;7.00;2.78;;;14.00;99.90;;;;;;5075065;28;20414;-69
2023/01/01 02:11:50;;;;;;;4.40;2.83;;;14.00;99.90;;;;;;5073964;28;20074;-69
2023/01/01 02:14:16;;;;;;;3.47;1.92;;;14.00;99.90;;;;;;5075461;28;20096;-69
2023/01/01 02:16:49;;;;;;;4.03;2.17;;;14.00;99.90;;;;;;5073856;28;20071;-69
2023/01/01 02:19:33;;;;;;;3.83;1.90;;;14.00;99.90;;;;;;5074619;28;20376;-69
2023/01/01 02:22:25;;;;;;;5.28;2.30;;;14.10;99.90;;;;;;5074503;28;20363;-69
2023/01/01 02:25:21;;;;;;;6.32;2.13;;;14.00;99.90;;;;;;5074950;28;20029;-69
2023/01/01 02:27:53;;;;;;;6.68;2.47;;;14.10;99.90;;;;;;5075020;28;20131;-69
2023/01/01 02:30:19;;;;;;;6.13;2.40;;;14.00;99.90;;;;;;5073763;28;20082;-68
2023/01/01 02:32:59;;;;;;;4.95;2.40;;;14.00;99.90;;;;;;5073604;28;20092;-68
2023/01/01 02:35:37;;;;;;;5.78;3.35;;;14.00;99.90;;;;;;5074683;28;20047;-69
2023/01/01 02:38:12;;;;;;;6.03;2.60;;;13.90;99.90;;;;;;5074980;28;20077;-69
2023/01/01 02:40:43;;;;;;;12.60;3.22;;;14.00;99.90;;;;;;5073789;28;20027;-69
2023/01/01 02:43:09;;;;;;;6.47;3.40;;;14.00;99.90;;;;;;5074727;28;20022;-68
2023/01/01 02:45:34;;;;;;;9.93;3.47;;;14.00;99.90;;;;;;5073342;28;20019;-68
2023/01/01 02:48:05;;;;;;;6.68;3.83;;;14.00;99.90;;;;;;5074079;28;20047;-68
2023/01/01 02:50:32;;;;;;;10.63;4.50;;;14.00;99.90;;;;;;5074357;28;20096;-68
2023/01/01 02:53:09;;;;;;;8.30;4.25;;;14.00;99.90;;;;;;5072607;28;20020;-68
2023/01/01 02:55:46;;;;;;;10.52;4.65;;;14.10;99.90;;;;;;5074715;28;20380;-68
2023/01/01 03:01:37;;;;;;;9.48;5.28;;;14.00;99.90;;;;;;5032417;28;20036;-68
2023/01/01 03:04:15;;;;;;;12.77;5.97;;;14.00;99.90;;;;;;5015780;28;20024;-68
2023/01/01 03:06:45;;;;;;;13.13;6.30;;;14.00;99.90;;;;;;5032802;28;20030;-68
2023/01/01 03:09:33;;;;;;;13.27;5.57;;;14.00;99.90;;;;;;5016354;28;20132;-68
2023/01/01 03:12:14;;;;;;;13.23;6.10;;;14.00;99.90;;;;;;5016002;28;20036;-68
2023/01/01 03:14:49;;;;;;;12.35;6.05;;;14.00;99.90;;;;;;5032614;28;20472;-68
2023/01/01 03:17:36;;;;;;;12.50;5.63;;;14.00;99.90;;;;;;5016228;28;20025;-68
2023/01/01 03:20:17;;;;;;;11.93;5.22;;;14.00;99.90;;;;;;5032341;28;20107;-68
2023/01/01 03:22:44;;;;;;;10.18;6.22;;;14.00;99.90;;;;;;5016167;28;20037;-68
2023/01/01 03:25:19;;;;;;;14.10;5.93;;;14.00;99.90;;;;;;5016136;28;20029;-67
2023/01/01 03:27:51;;;;;;;14.70;6.22;;;14.00;99.90;;;;;;5031973;28;20041;-67
2023/01/01 03:30:19;;;;;;;14.10;5.90;;;14.10;99.90;;;;;;5031763;28;20041;-67
2023/01/01 03:33:14;;;;;;;12.93;6.40;;;14.00;99.90;;;;;;5015351;28;20236;-67
2023/01/01 03:35:46;;;;;;;16.15;5.35;;;14.10;99.90;;;;;;4957760;28;20030;-67
2023/01/01 03:38:28;;;;;;;11.32;5.82;;;14.00;99.90;;;;;;5002894;28;20129;-67
2023/01/01 03:41:09;;;;;;;12.43;5.18;;;14.10;99.90;;;;;;5015374;28;20033;-68
2023/01/01 03:43:57;;;;;;;9.38;4.85;;;14.10;99.90;;;;;;5015356;28;20183;-68
2023/01/01 03:46:28;;;;;;;13.13;5.85;;;14.00;99.90;;;;;;5031972;28;20107;-68
2023/01/01 03:48:56;;;;;;;8.68;5.05;;;14.00;99.90;;;;;;5031822;28;20041;-68
2023/01/01 03:51:26;;;;;;;9.27;4.95;;;14.00;99.90;;;;;;5031956;28;20032;-68
2023/01/01 03:53:55;;;;;;;10.20;5.32;;;14.00;99.90;;;;;;5015691;28;20029;-68
2023/01/01 03:56:40;;;;;;;9.30;4.70;;;14.00;99.90;;;;;;5016075;28;20022;-68
2023/01/01 03:59:14;;;;;;;13.55;5.65;;;14.00;99.90;;;;;;5031561;28;20033;-68
2023/01/01 04:01:45;;;;;;;15.57;5.10;;;14.00;99.90;;;;;;5031573;28;20053;-68
2023/01/01 04:04:13;;;;;;;12.93;5.57;;;14.00;99.90;;;;;;5031013;28;20041;-68
2023/01/01 04:06:39;;;;;;;7.55;4.13;;;14.00;99.90;;;;;;5031407;28;20029;-68
2023/01/01 04:09:13;;;;;;;8.70;4.32;;;14.00;99.90;;;;;;5014880;28;20033;-68
2023/01/01 04:12:02;;;;;;;11.00;4.78;;;14.00;99.90;;;;;;5038837;28;20029;-68
2023/01/01 04:14:38;;;;;;;8.77;3.97;;;14.00;99.90;;;;;;5073346;28;20021;-68
2023/01/01 04:17:05;;;;;;;7.10;4.03;;;14.00;99.90;;;;;;5073706;28;20025;-68
2023/01/01 04:19:31;;;;;;;8.70;4.32;;;14.00;99.90;;;;;;5072136;28;20060;-68
2023/01/01 04:21:57;;;;;;;14.73;6.57;;;14.00;99.90;;;;;;5073327;28;20059;-68
2023/01/01 04:24:23;;;;;;;16.25;8.50;;;13.90;99.90;;;;;;5072179;28;20194;-68
2023/01/01 04:26:50;;;;;;;19.83;9.00;;;13.70;99.90;;;;;;5071948;28;20404;-68
2023/01/01 04:29:16;;;;;;;25.92;11.18;;;13.50;99.90;;;;;;5073281;28;20029;-68
2023/01/01 04:31:42;;;;;;;22.15;10.27;;;13.40;99.90;;;;;;5073657;28;20027;-68
2023/01/01 04:34:07;;;;;;;20.48;10.15;;;13.40;99.90;;;;;;5072006;28;20028;-68
2023/01/01 04:36:34;;;;;;;22.00;10.07;;;13.40;99.90;;;;;;5073038;28;20021;-68
2023/01/01 04:38:59;;;;;;;17.20;10.00;;;13.40;99.90;;;;;;5073175;28;20024;-68
2023/01/01 04:41:25;;;;;;;19.98;10.95;;;13.30;99.90;;;;;;5071806;28;20089;-68
2023/01/01 04:43:50;;;;;;;23.52;11.75;;;13.30;99.90;;;;;;5072756;28;20107;-68
2023/01/01 04:46:18;;;;;;;22.65;11.40;;;13.10;99.90;;;;;;5071925;28;20017;-68
2023/01/01 04:48:44;;;;;;;23.73;11.15;;;13.10;99.90;;;;;;5072221;28;20483;-68
2023/01/01 04:51:11;;;;;;;23.00;10.77;;;13.10;99.90;;;;;;5071217;28;20040;-68
2023/01/01 04:53:37;;;;;;;19.25;9.93;;;13.00;99.90;;;;;;5071782;28;20024;-68
2023/01/01 04:56:06;;;;;;;25.02;11.98;;;13.00;99.90;;;;;;5072800;28;20021;-68
2023/01/01 04:58:33;;;;;;;19.98;10.20;;;13.10;99.90;;;;;;5071801;28;20098;-68
2023/01/01 05:00:58;;;;;;;22.33;10.52;;;13.00;99.90;;;;;;5071640;28;20024;-68
2023/01/01 05:03:24;;;;;;;22.60;11.05;;;13.00;99.90;;;;;;5072688;28;20033;-68
2023/01/01 05:06:07;;;;;;;28.05;11.43;;;12.80;99.90;;;;;;5071888;28;20021;-68
2023/01/01 05:08:34;;;;;;;24.13;10.50;;;12.80;99.90;;;;;;5073020;28;20078;-68
2023/01/01 05:11:06;;;;;;;24.92;11.10;;;12.90;99.90;;;;;;5071063;28;20476;-68
2023/01/01 05:13:36;;;;;;;21.60;10.40;;;12.80;99.90;;;;;;5071347;28;20498;-68
2023/01/01 05:16:03;;;;;;;20.83;9.98;;;12.90;99.90;;;;;;5074851;28;20035;-68
2023/01/01 05:18:29;;;;;;;27.58;11.40;;;12.70;99.90;;;;;;5076147;28;20017;-68
2023/01/01 05:21:06;;;;;;;18.83;9.63;;;12.80;99.90;;;;;;5076936;28;20089;-69
2023/01/01 05:23:32;;;;;;;17.83;8.73;;;12.90;99.90;;;;;;5075870;28;20035;-69
2023/01/01 05:25:58;;;;;;;17.25;10.13;;;12.90;99.90;;;;;;5075660;28;20032;-69
2023/01/01 05:28:23;;;;;;;21.40;9.63;;;13.00;99.90;;;;;;5074760;28;20031;-69
2023/01/01 05:30:52;;;;;;;19.42;9.75;;;13.00;99.90;;;;;;5074600;28;20028;-69
2023/01/01 05:33:19;;;;;;;23.30;9.30;;;12.90;99.90;;;;;;5074795;28;20088;-69
2023/01/01 05:35:44;;;;;;;15.68;8.00;;;12.90;99.90;;;;;;5076146;28;20020;-69
2023/01/01 05:38:10;;;;;;;16.70;8.02;;;13.00;99.90;;;;;;5076410;28;20082;-69
2023/01/01 05:40:39;;;;;;;19.48;8.77;;;13.00;99.90;;;;;;5074471;28;20109;-69
2023/01/01 05:43:06;;;;;;;17.70;8.13;;;12.90;99.90;;;;;;5075408;28;20114;-69
2023/01/01 05:45:31;;;;;;;17.08;8.20;;;12.90;99.90;;;;;;5074503;28;20025;-69
2023/01/01 05:47:57;;;;;;;13.30;7.82;;;13.00;99.90;;;;;;5075299;28;20028;-69
2023/01/01 05:50:22;;;;;;;13.68;7.22;;;13.00;99.90;;;;;;5074584;28;20064;-69
2023/01/01 05:52:48;;;;;;;17.83;7.78;;;12.90;99.90;;;;;;5074420;28;20026;-69
2023/01/01 05:55:13;;;;;;;14.77;7.32;;;13.00;99.90;;;;;;5074323;28;20020;-69
2023/01/01 05:57:39;;;;;;;15.52;7.80;;;13.00;99.90;;;;;;5075775;28;20472;-69
2023/01/01 06:00:05;;;;;;;17.67;7.75;;;12.90;99.90;;;;;;5076025;28;20084;-69
2023/01/01 06:02:31;;;;;;;14.05;7.47;;;13.00;99.90;;;;;;5075396;28;20031;-69
2023/01/01 06:04:56;;;;;;;15.10;7.40;;;13.00;99.90;;;;;;5074376;28;20115;-69
2023/01/01 06:07:22;;;;;;;19.83;7.22;;;13.00;99.90;;;;;;5073974;28;20035;-69
2023/01/01 06:09:47;;;;;;;14.15;7.72;;;13.00;99.90;;;;;;5075110;28;20024;-69
2023/01/01 06:12:13;;;;;;;14.13;7.45;;;13.00;99.90;;;;;;5074268;28;20023;-69
2023/01/01 06:14:38;;;;;;;17.88;8.18;;;13.10;99.90;;;;;;5075317;28;20023;-69
2023/01/01 06:17:04;;;;;;;13.90;7.53;;;13.10;99.90;;;;;;5073894;28;20025;-69
2023/01/01 06:19:29;;;;;;;11.88;6.45;;;13.10;99.90;;;;;;5073805;28;20028;-69
2023/01/01 06:21:55;;;;;;;12.57;5.85;;;13.10;99.90;;;;;;5073793;28;20035;-69
2023/01/01 06:24:20;;;;;;;15.95;7.35;;;13.10;99.90;;;;;;5075603;28;20028;-69
2023/01/01 06:26:46;;;;;;;7.70;3.95;;;13.10;99.90;;;;;;5074899;28;20033;-69
2023/01/01 06:29:11;;;;;;;9.75;3.40;;;13.20;99.90;;;;;;5073866;28;20043;-69
2023/01/01 06:31:37;;;;;;;5.88;2.92;;;13.30;99.90;;;;;;5075058;28;20086;-69
2023/01/01 06:34:02;;;;;;;4.68;2.00;;;13.30;99.90;;;;;;5074725;28;20032;-69
2023/01/01 06:36:28;;;;;;;6.40;2.05;;;13.50;99.90;;;;;;5074845;28;20020;-69
2023/01/01 06:38:55;;;;;;;12.02;1.90;;;13.50;99.90;;;;;;5073477;28;20032;-69
2023/01/01 06:41:26;;;;;;;5.25;1.92;;;13.60;99.90;;;;;;5073755;28;20021;-69
2023/01/01 06:43:53;;;;;;;5.32;2.00;;;13.80;99.90;;;;;;5073759;28;20029;-69
2023/01/01 06:46:23;;;;;;;5.60;1.95;;;13.90;99.90;;;;;;5074612;28;20397;-69
2023/01/01 06:48:52;;;;;;;5.47;1.63;;;13.90;99.90;;;;;;5074089;28;20119;-69
2023/01/01 06:51:23;;;;;;;4.25;1.98;;;13.90;99.90;;;;;;5073464;28;20028;-69
2023/01/01 06:53:49;;;;;;;7.75;1.83;;;13.90;99.90;;;;;;5073903;28;20070;-69
2023/01/01 06:56:16;;;;;;;3.55;2.10;;;13.90;99.90;;;;;;5073864;28;20025;-69
2023/01/01 06:58:41;;;;;;;3.17;2.15;;;14.00;99.90;;;;;;5073902;28;20021;-69
2023/01/01 07:01:13;;;;;;;4.57;1.92;;;14.00;99.90;;;;;;5074548;28;20055;-69
2023/01/01 07:03:39;;;;;;;4.22;2.00;;;14.00;99.90;;;;;;5073558;28;20025;-69
2023/01/01 07:06:06;;;;;;;5.38;2.33;;;14.00;99.90;;;;;;5073289;28;20036;-69
2023/01/01 07:08:32;;;;;;;5.72;1.80;;;14.00;99.90;;;;;;5073083;28;20032;-69
2023/01/01 07:10:57;;;;;;;3.55;2.05;;;14.00;99.90;;;;;;5072987;28;20187;-69
2023/01/01 07:13:24;;;;;;;6.57;1.90;;;14.00;99.90;;;;;;5074118;28;20017;-69
2023/01/01 07:15:49;;;;;;;7.65;1.92;;;14.00;99.90;;;;;;5074032;28;20021;-69
2023/01/01 07:18:15;;;;;;;4.25;2.05;;;14.00;99.90;;;;;;5073982;28;20042;-69
2023/01/01 07:20:41;;;;;;;12.18;2.30;;;14.00;99.90;;;;;;5072787;28;20040;-69
2023/01/01 07:23:10;;;;;;;3.50;1.60;;;14.00;99.90;;;;;;5073784;28;20032;-69
2023/01/01 07:25:35;;;;;;;4.35;2.17;;;14.00;99.90;;;;;;5072487;28;20059;-69
2023/01/01 07:28:01;;;;;;;3.28;1.55;;;14.00;99.90;;;;;;5072560;28;20059;-69
2023/01/01 07:30:26;;;;;;;7.30;2.10;;;14.00;99.90;;;;;;5072364;28;20070;-69
2023/01/01 07:32:55;;;;;;;6.03;1.90;;;14.00;99.90;;;;;;5073592;28;20099;-69
2023/01/01 07:35:20;;;;;;;5.28;2.30;;;13.90;99.90;;;;;;5073938;28;20027;-69
2023/01/01 07:37:46;;;;;;;4.68;1.85;;;14.00;99.90;;;;;;5072191;28;20021;-69
2023/01/01 07:40:12;;;;;;;6.82;2.30;;;14.00;99.90;;;;;;5072497;28;20027;-69
2023/01/01 07:42:37;;;;;;;7.85;1.95;;;14.00;99.90;;;;;;5072205;28;20025;-69
2023/01/01 07:45:03;;;;;;;9.70;2.10;;;14.00;99.90;;;;;;5072308;28;20040;-69
2023/01/01 07:47:28;;;;;;;10.77;2.35;;;14.00;99.90;;;;;;5072262;28;20031;-69
2023/01/01 07:49:54;;;;;;;7.93;1.90;;;14.00;99.90;;;;;;5073244;28;20173;-69
2023/01/01 07:52:20;;;;;;;5.45;1.63;;;14.00;99.90;;;;;;5073399;28;20021;-69
2023/01/01 07:54:45;;;;;;;7.85;1.98;;;14.00;99.90;;;;;;5072394;28;20035;-69
2023/01/01 07:57:11;;;;;;;6.88;1.77;;;14.00;99.90;;;;;;5073291;28;20021;-69
2023/01/01 07:59:36;;;;;;;4.82;1.88;;;14.00;99.90;;;;;;5071956;28;20028;-69
2023/01/01 08:02:02;;;;;;;3.05;1.77;;;14.10;99.90;;;;;;5072049;28;20086;-69
2023/01/01 08:04:28;;;;;;;2.83;1.90;;;14.10;99.90;;;;;;5072020;28;20024;-69
2023/01/01 08:06:54;;;;;;;4.70;1.70;;;14.10;99.90;;;;;;5072279;28;20119;-69
2023/01/01 08:09:20;;;;;;;7.32;2.75;;;14.10;99.90;;;;;;5071910;28;20055;-69
2023/01/01 08:11:45;;;;;;;5.18;1.83;;;14.10;99.90;;;;;;5073159;28;20021;-69
2023/01/01 08:14:12;;;;;;;6.47;1.90;;;14.10;99.90;;;;;;5072083;28;20055;-69
2023/01/01 08:16:38;;;;;;;8.55;2.20;;;14.20;99.90;;;;;;5071852;28;20048;-69
2023/01/01 08:19:04;;;;;;;3.35;1.90;;;14.20;99.90;;;;;;5071809;28;20052;-69
2023/01/01 08:21:30;;;;;;;8.63;2.58;;;14.20;99.90;;;;;;5071790;28;20182;-69
2023/01/01 08:23:55;;;;;;;1.85;1.42;;;14.20;99.90;;;;;;5072066;28;20024;-69
2023/01/01 08:26:32;;;;;;;6.90;1.90;;;14.20;99.90;;;;;;5073040;28;20064;-69
2023/01/01 08:28:58;;;;;;;7.18;2.03;;;14.20;99.90;;;;;;5071799;28;20024;-69
2023/01/01 08:31:24;;;;;;;7.15;1.95;;;14.20;99.90;;;;;;5071649;28;20029;-69
2023/01/01 08:33:49;;;;;;;10.35;1.83;;;14.20;99.90;;;;;;5072898;28;20138;-69
2023/01/01 08:36:15;;;;;;;3.22;1.85;;;14.20;99.90;;;;;;5071729;28;20016;-69
2023/01/01 08:38:42;;;;;;;2.78;1.73;;;14.30;99.90;;;;;;5071619;28;20016;-69
2023/01/01 08:41:07;;;;;;;4.35;1.70;;;14.30;99.90;;;;;;5071667;28;20024;-69
2023/01/01 08:43:33;;;;;;;7.53;1.83;;;14.40;99.90;;;;;;5073176;28;20025;-69
2023/01/01 08:45:59;;;;;;;4.82;1.85;;;14.40;99.90;;;;;;5071883;28;20078;-69
2023/01/01 08:48:24;;;;;;;9.05;2.28;;;14.40;99.90;;;;;;5071549;28;20031;-69
2023/01/01 08:50:54;;;;;;;6.35;1.70;;;14.40;99.90;;;;;;5073699;28;20051;-69
2023/01/01 08:53:20;;;;;;;4.78;2.05;;;14.30;99.90;;;;;;5076358;28;20020;-69
2023/01/01 08:55:55;;;;;;;4.40;1.52;;;14.40;99.90;;;;;;5076284;28;20087;-69
2023/01/01 08:58:20;;;;;;;3.83;1.92;;;14.40;99.90;;;;;;5077178;28;20021;-69
2023/01/01 09:00:46;;;;;;;4.95;1.70;;;14.40;99.90;;;;;;5076815;28;20115;-69
2023/01/01 09:03:11;;;;;;;2.40;1.20;;;14.40;99.90;;;;;;5076560;28;20024;-69
2023/01/01 09:05:37;;;;;;;6.03;2.08;;;14.40;99.90;;;;;;5075531;28;20478;-69
2023/01/01 09:08:02;;;;;;;4.20;1.77;;;14.50;99.90;;;;;;5075271;28;20024;-69
2023/01/01 09:10:29;;;;;;;4.63;1.60;;;14.40;99.90;;;;;;5075432;28;20031;-69
2023/01/01 09:12:54;;;;;;;3.45;1.63;;;14.50;99.90;;;;;;5075267;28;20025;-69
2023/01/01 09:15:20;;;;;;;11.55;2.20;;;14.50;99.90;;;;;;5076309;28;20028;-69
2023/01/01 09:17:45;;;;;;;9.00;3.40;;;14.40;99.90;;;;;;5075202;28;20165;-69
2023/01/01 09:20:11;;;;;;;5.75;1.50;;;14.40;99.90;;;;;;5074861;28;20033;-68
2023/01/01 09:22:36;;;;;;;4.28;1.80;;;14.50;99.90;;;;;;5076157;28;20021;-69
2023/01/01 09:25:02;;;;;;;4.63;1.80;;;14.50;99.90;;;;;;5075206;28;20027;-69
2023/01/01 09:27:28;;;;;;;4.15;1.60;;;14.50;99.90;;;;;;5076391;28;20028;-69
2023/01/01 09:29:54;;;;;;;2.97;1.50;;;14.50;99.90;;;;;;5074642;28;20039;-68
2023/01/01 09:32:19;;;;;;;5.70;1.75;;;14.50;99.90;;;;;;5076138;28;20028;-69
2023/01/01 09:34:45;;;;;;;5.85;2.50;;;14.50;99.90;;;;;;5074989;28;20043;-69
2023/01/01 09:37:10;;;;;;;3.00;1.50;;;14.60;99.90;;;;;;5074630;28;20099;-69
2023/01/01 09:39:36;;;;;;;6.97;1.83;;;14.60;99.90;;;;;;5074513;28;20115;-69
2023/01/01 09:42:34;;;;;;;6.03;1.83;;;14.70;99.90;;;;;;5075679;28;20028;-69
2023/01/01 09:45:15;;;;;;;2.88;1.40;;;14.70;99.90;;;;;;5074807;28;20153;-69
2023/01/01 09:47:46;;;;;;;5.82;1.55;;;14.70;99.90;;;;;;5075319;28;20020;-69
2023/01/01 09:50:24;;;;;;;5.35;2.40;;;14.60;99.90;;;;;;5075262;28;20094;-68
2023/01/01 09:52:55;;;;;;;8.65;2.75;;;14.60;99.90;;;;;;5075893;28;20482;-69
2023/01/01 09:55:53;;;;;;;2.55;1.67;;;14.70;99.90;;;;;;5075689;28;20021;-69
2023/01/01 09:58:25;;;;;;;4.63;1.98;;;14.70;99.90;;;;;;5074249;28;20040;-69
2023/01/01 10:00:54;;;;;;;5.25;1.60;;;14.70;99.90;;;;;;5074241;28;20054;-69
2023/01/01 10:03:35;;;;;;;4.63;2.17;;;14.70;99.90;;;;;;5073623;28;20048;-68
2023/01/01 10:06:19;;;;;;;3.58;1.50;;;14.70;99.90;;;;;;5074720;28;20051;-68
2023/01/01 10:09:08;;;;;;;3.60;1.45;;;14.70;99.90;;;;;;5074517;28;20032;-68
2023/01/01 10:11:48;;;;;;;3.20;1.50;;;14.70;99.90;;;;;;5074222;28;20051;-69
2023/01/01 10:14:27;;;;;;;5.40;1.98;;;14.80;99.90;;;;;;5073899;28;20085;-68
2023/01/01 10:16:54;;;;;;;3.97;1.88;;;14.70;99.90;;;;;;5074509;28;20025;-68
2023/01/01 10:19:42;;;;;;;3.05;1.60;;;14.70;99.90;;;;;;5074121;28;20035;-68
2023/01/01 10:22:14;;;;;;;5.50;1.77;;;14.70;99.90;;;;;;5075174;28;20074;-68
2023/01/01 10:24:48;;;;;;;3.30;1.45;;;14.70;99.90;;;;;;5074181;28;20096;-69
2023/01/01 10:27:30;;;;;;;6.95;2.00;;;14.70;99.90;;;;;;5074857;28;20024;-68
2023/01/01 10:29:56;;;;;;;3.38;1.48;;;14.70;99.90;;;;;;5074154;28;20028;-69
2023/01/01 10:33:14;;;;;;;6.53;1.85;;;14.80;99.90;;;;;;5073673;28;20020;-69
2023/01/01 10:35:46;;;;;;;5.05;1.75;;;14.80;99.90;;;;;;5073672;28;20013;-69
2023/01/01 10:38:17;;;;;;;;;;;14.80;99.90;;;;;;5074093;28;20028;-69
2023/01/01 10:40:43;;;;;;;7.22;1.60;;;14.80;99.90;;;;;;5073985;28;19904;-69
2023/01/01 10:43:10;;;;;;;4.00;1.50;;;14.80;99.90;;;;;;5073450;28;20112;-69
2023/01/01 10:45:42;;;;;;;5.45;1.55;;;14.80;99.90;;;;;;5073506;28;20085;-70
2023/01/01 10:48:15;;;;;;;4.75;1.70;;;14.80;99.90;;;;;;5073387;28;20033;-69
2023/01/01 10:50:59;;;;;;;6.18;1.50;;;14.80;99.90;;;;;;5074404;28;20028;-70
2023/01/01 10:53:33;;;;;;;4.95;1.63;;;14.80;99.90;;;;;;5073891;28;20089;-70
2023/01/01 10:56:16;;;;;;;5.22;1.60;;;14.80;99.90;;;;;;5074134;28;20024;-70
2023/01/01 10:58:57;;;;;;;5.55;1.70;;;14.90;99.90;;;;;;5074680;28;20024;-70
2023/01/01 11:01:27;;;;;;;4.28;1.25;;;14.80;99.90;;;;;;5073049;28;20047;-70
2023/01/01 11:03:58;;;;;;;2.78;1.67;;;14.80;99.90;;;;;;5073412;28;20029;-70
2023/01/01 11:06:25;;;;;;;3.55;1.50;;;14.90;99.90;;;;;;5073582;28;20025;-70
2023/01/01 11:08:54;;;;;;;4.32;1.23;;;14.90;99.90;;;;;;5073037;28;20034;-70
2023/01/01 11:11:29;;;;;;;4.65;1.30;;;14.90;99.90;;;;;;5073523;28;20047;-69
2023/01/01 11:13:58;;;;;;;7.57;1.60;;;14.90;99.90;;;;;;5073729;28;20439;-71
2023/01/01 11:16:25;;;;;;;7.28;1.60;;;14.90;99.90;;;;;;5072795;28;20027;-69
2023/01/01 11:18:51;;;;;;;4.53;1.80;;;14.90;99.90;;;;;;5073968;28;20025;-69
2023/01/01 11:21:22;;;;;;;4.30;1.73;;;14.80;99.90;;;;;;5073529;28;20047;-69
2023/01/01 11:23:51;;;;;;;9.02;1.80;;;14.80;99.90;;;;;;5072874;28;20031;-68
2023/01/01 11:26:16;;;;;;;4.22;1.90;;;14.80;99.90;;;;;;5072488;28;20039;-69
2023/01/01 11:29:15;;;;;;;9.32;2.03;;;14.80;99.90;;;;;;5073590;28;20025;-69
2023/01/01 11:31:44;;;;;;;3.80;1.48;;;14.70;99.90;;;;;;5072335;28;20032;-70
2023/01/01 11:34:29;;;;;;;5.82;2.10;;;14.70;99.90;;;;;;5072502;28;20392;-69
2023/01/01 11:37:13;;;;;;;8.55;2.33;;;14.70;99.90;;;;;;5072342;28;20070;-68
2023/01/01 11:39:48;;;;;;;5.28;1.60;;;14.80;99.90;;;;;;5073124;28;20021;-68
2023/01/01 11:42:19;;;;;;;8.80;1.90;;;14.80;99.90;;;;;;5073660;28;20024;-68
2023/01/01 11:44:59;;;;;;;6.60;1.42;;;14.80;99.90;;;;;;5072617;28;20036;-68
2023/01/01 11:47:30;;;;;;;6.95;1.90;;;14.80;99.90;;;;;;5073444;28;20037;-68
2023/01/01 11:50:01;;;;;;;4.75;1.65;;;14.90;99.90;;;;;;5072812;28;20024;-67
2023/01/01 11:52:50;;;;;;;6.73;1.70;;;14.90;99.90;;;;;;5073283;28;20027;-67
2023/01/01 11:55:46;;;;;;;5.93;1.40;;;14.90;99.90;;;;;;5074105;28;20374;-67
2023/01/01 11:58:35;;;;;;;5.68;1.40;;;14.90;99.90;;;;;;5068982;28;20094;-67
2023/01/01 12:01:30;;;;;;;5.13;1.83;;;14.80;99.90;;;;;;5072471;28;20021;-67
2023/01/01 12:04:14;;;;;;;5.30;2.00;;;15.00;99.90;;;;;;5066725;28;20031;-67
2023/01/01 12:07:01;;;;;;;6.22;1.58;;;15.00;99.90;;;;;;5072017;28;20031;-67
2023/01/01 12:09:41;;;;;;;21.00;2.47;;;15.00;99.90;;;;;;5073411;28;20028;-67
2023/01/01 12:12:35;;;;;;;4.05;1.65;;;15.00;99.90;;;;;;5071872;28;20020;-67
2023/01/01 12:15:42;;;;;;;5.82;1.42;;;15.00;99.90;;;;;;5063730;28;20145;-67
2023/01/01 12:18:27;;;;;;;6.72;1.42;;;15.00;99.90;;;;;;5071834;28;20073;-67
2023/01/01 12:21:07;;;;;;;6.63;1.83;;;15.00;99.90;;;;;;5073310;28;20120;-67
2023/01/01 12:23:33;;;;;;;9.55;1.77;;;15.00;99.90;;;;;;5072591;28;20124;-67
2023/01/01 12:26:18;;;;;;;3.85;1.52;;;15.10;99.90;;;;;;5072784;28;20063;-67
2023/01/01 12:29:10;;;;;;;5.53;2.13;;;15.10;99.90;;;;;;5073189;28;20479;-67
2023/01/01 12:32:14;;;;;;;8.93;1.90;;;15.10;99.90;;;;;;5071899;28;20123;-67
2023/01/01 12:34:43;;;;;;;6.63;1.67;;;15.10;99.90;;;;;;5071568;28;20107;-67
2023/01/01 12:37:12;;;;;;;6.03;1.88;;;15.10;99.90;;;;;;5071432;28;20035;-67
2023/01/01 12:43:06;;;;;;;9.50;1.67;;;15.20;99.90;;;;;;5073206;28;20108;-67
2023/01/01 12:45:50;;;;;;;7.00;1.45;;;15.20;99.90;;;;;;5072153;28;20059;-67
2023/01/01 12:48:40;;;;;;;5.43;1.70;;;15.20;99.90;;;;;;5071465;28;20031;-67
2023/01/01 12:51:38;;;;;;;7.60;1.50;;;15.20;99.90;;;;;;5072613;28;20031;-67
2023/01/01 12:54:11;;;;;;;4.55;1.60;;;15.20;99.90;;;;;;5072830;28;20088;-67
2023/01/01 12:56:50;;;;;;;4.32;2.00;;;15.20;99.90;;;;;;5071209;28;20115;-67
2023/01/01 12:59:30;;;;;;;9.10;2.58;;;15.30;99.90;;;;;;5071543;28;20025;-67
2023/01/01 13:01:59;;;;;;;3.55;1.05;;;15.30;99.90;;;;;;5071436;28;20043;-67
2023/01/01 13:04:25;;;;;;;6.47;1.55;;;15.30;99.90;;;;;;5072534;28;20101;-67
2023/01/01 13:07:04;;;;;;;4.78;1.58;;;15.30;99.90;;;;;;5072574;28;20032;-69
2023/01/01 13:09:44;;;;;;;8.35;1.55;;;15.30;99.90;;;;;;5071240;28;20111;-67